Welcome to our new website - Welkom op onze vernieuwde website - Bienvenue sur notre nouveau site web - Willkommen auf unserer neuen Website
Check our progress frequently. Prüfen Sie unsere Fortschritte regelmäßig. Consultez notre progression fréquemment. Komt u straks nog eens

KNMI Weersverwachting is alleen beschikbaar in de Nederlandse Taal, Ongeacht welke taal u kiest.
KNMI weather forecast is only available in the Dutch language, No matter what language you choose.







Meteo Oudkarspel - De weer weet site voor Langedijk

Blijf op de hoogte van het actuele weer, Keep up to date with the current weather.



Lokaal brandgevaar
CBI


Regionaal natuur brand risico: Meer informatie


Mijn Webcam 1 Meer informatie My webcam


Mijn Webcam 2 Meer informatie My webcam 2


Onweer radar Meer informatie blitzortung!


Regen radar Meer informatie rain snow radar


Bezoek onze andere website:

Template - Davis WeatherLink Version
Vantage Veu

Template - Meteotemplate

Template - HomeWeatherStation

PDøROK Multimedia

Meteo Broek Op Langedijk

Visual FM - Serious Internet RadioVisual FM - Serious Internet Radio

Lief LangedijkLief Langedijk

Dé fietsenmaker van Langedijk en omstrekenAxel Noort dé fietsenmaker

Ijsvereniging Volharding

Meteo Tuitjenhorn

Meteo Delfzijl

Weerstation Noordbergum

Weerstation ParkstadWeerstation Parkstad



Het weer levert geen direct gevaar op.    Er zijn geen waarschuwingen afgegeven.

METAR rapporten vliegvelden

   
EHKD - De Kooy (navy), Netherlands
Afstand tot: N 23 km
Gewijzigd: 03-Dec-2020 14:25
Grotendeels bewolkt  
Grotendeels bewolkt  
   Wind: Zuiden 20.4 km/h
Wind: Zuiden 20.4 km/h
Temperatuur: 6°C
Voelt als: 2°C
Dauwpunt: 5°C
Vochtigheid: 93%
Barometer: 992 hPa
Bewolking: Grotendeels bewolkt
Zicht: meer dan 10 km
Bewolking: Licht bewolkt 900 ft,
Gedeeltelijk bewolkt 1000 ft,
Grotendeels bewolkt 1200 ft
EHKD 031325Z AUTO 17011KT 140V200 9999 FEW009 SCT010 BKN012 06/05 Q0992 GRN TEMPO 3500 RADZ SCT006 BKN020
EHAM - Amsterdam/Schiph, Netherlands
Afstand tot: Z 44 km
Gewijzigd: 03-Dec-2020 13:55
Grotendeels bewolkt  
Grotendeels bewolkt  
   Wind: Zuiden 24.1 km/h
Wind: Zuiden 24.1 km/h
Temperatuur: 6°C
Voelt als: 2°C
Dauwpunt: 5°C
Vochtigheid: 93%
Barometer: 993 hPa
Bewolking: Grotendeels bewolkt
Zicht: 9 km
Bewolking: Licht bewolkt 700 ft,
Gedeeltelijk bewolkt 900 ft,
Grotendeels bewolkt 1200 ft
EHAM 031255Z 17013KT 140V210 9000 FEW007 SCT009 BKN012 06/05 Q0993 NOSIG
EHQE - Hoorn-A Sea, Netherlands
Afstand tot: WNW 50 km
Gewijzigd: 03-Dec-2020 14:25
Grotendeels bewolkt  
Grotendeels bewolkt  
   Wind: ZZO 51.9 km/h
Wind: ZZO 51.9 km/h
Temperatuur: 8°C
Voelt als: 3°C
Dauwpunt: 4°C
Vochtigheid: 76%
Barometer: 991 hPa
Bewolking: Grotendeels bewolkt
Zicht: meer dan 10 km
Bewolking: Licht bewolkt 100 ft,
Gedeeltelijk bewolkt 1500 ft,
Grotendeels bewolkt 3100 ft
EHQE 031325Z AUTO 16028KT 9999 FEW001 SCT015 BKN031 08/04 Q0991
EHVL - Vlieland Island, Netherlands
Afstand tot: N 58 km
Gewijzigd: 03-Dec-2020 14:25
Grotendeels bewolkt  
Grotendeels bewolkt  
   Wind: Zuiden 29.6 km/h
Wind: Zuiden 29.6 km/h
Temperatuur: 6°C
Voelt als: 2°C
Dauwpunt: 5°C
Vochtigheid: 93%
Barometer: 992 hPa
Bewolking: Grotendeels bewolkt
Zicht: meer dan 10 km
Bewolking: Gedeeltelijk bewolkt 3400 ft,
Gedeeltelijk bewolkt 4100 ft,
Grotendeels bewolkt 4600 ft
EHVL 031325Z AUTO 17016KT 9999 SCT034 SCT041 BKN046 06/05 Q0992 BLU
EHLW - Leeuwarden Rnlaf, Netherlands
Afstand tot: NO 85 km
Gewijzigd: 03-Dec-2020 14:25
Nevel, Bewolking  
Nevel, Bewolking  
   Wind: Zuiden 18.5 km/h
Wind: Zuiden 18.5 km/h
Temperatuur: 6°C
Voelt als: 3°C
Dauwpunt: 5°C
Vochtigheid: 93%
Barometer: 994 hPa
Bewolking: Bewolking
Zicht: 8 km
Bewolking: Grotendeels bewolkt 700 ft,
Bewolking 800 ft
EHLW 031325Z AUTO 18010KT 130V210 8000 BR BKN007 OVC008 06/05 Q0994 GRN TEMPO 4000 RADZ SCT003 BKN005
EHRD - Rotterdam Airpor, Netherlands
Afstand tot: ZZW 88 km
Gewijzigd: 03-Dec-2020 14:25
Heavy Drizzle, Regen, Grotendeels bewolkt  
Heavy Drizzle, Regen, Grotendeels bewolkt  
   Wind: Zuiden 24.1 km/h
Wind: Zuiden 24.1 km/h
Temperatuur: 6°C
Voelt als: 2°C
Dauwpunt: 5°C
Vochtigheid: 93%
Barometer: 993 hPa
Bewolking: Grotendeels bewolkt
Zicht: 9 km
Bewolking: Gedeeltelijk bewolkt 800 ft,
Grotendeels bewolkt 900 ft,
Grotendeels bewolkt 1000 ft
EHRD 031325Z AUTO 18013KT 150V210 9000 +DZRA SCT008 BKN009 BKN010 06/05 Q0993 TEMPO NSW BKN015
EHKV - K14-Fa-1c Sea, Netherlands
Afstand tot: NW 100 km
Gewijzigd: 03-Dec-2020 14:25
Grotendeels bewolkt  
Grotendeels bewolkt  
   Wind: Zuiden 42.6 km/h
Wind: Zuiden 42.6 km/h
Temperatuur: 8°C
Voelt als: 3°C
Dauwpunt: 4°C
Vochtigheid: 76%
Barometer: 989 hPa
Bewolking: Grotendeels bewolkt
Zicht: meer dan 10 km
Bewolking: Licht bewolkt 1200 ft,
Gedeeltelijk bewolkt 2700 ft,
Grotendeels bewolkt 3100 ft
EHKV 031325Z AUTO 19023KT 9999 FEW012 SCT027 BKN031 08/04 Q0989
EHMG - L9-Ff-1 Sea, Netherlands
Afstand tot: N 101 km
Gewijzigd: 03-Dec-2020 14:25
Wat regen mogelijk, Motregen, Grotendeels bewolkt  
Wat regen mogelijk, Motregen, Grotendeels bewolkt  
   Wind: Zuiden 37 km/h
Wind: Zuiden 37 km/h
Temperatuur: 7°C
Voelt als: 2°C
Dauwpunt: 4°C
Vochtigheid: 81%
Barometer: 993 hPa
Bewolking: Grotendeels bewolkt
Zicht: meer dan 10 km
Bewolking: Licht bewolkt 900 ft,
Gedeeltelijk bewolkt 1400 ft,
Grotendeels bewolkt 2900 ft
EHMG 031325Z AUTO 19020KT 9999 -RADZ FEW009 SCT014 BKN029 07/04 Q0993
EHDL - Deelen Rnlafb, Netherlands
Afstand tot: ZO 102 km
Gewijzigd: 03-Dec-2020 14:25
Lichte (mot)regen, Bewolking  
Lichte (mot)regen, Bewolking  
   Wind: ZZO 16.7 km/h
Wind: ZZO 16.7 km/h
Temperatuur: 5°C
Voelt als: 2°C
Dauwpunt: 5°C
Vochtigheid: 100%
Barometer: 995 hPa
Bewolking: Bewolking
Zicht: 8 km
Bewolking: Licht bewolkt 700 ft,
Grotendeels bewolkt 1000 ft,
Bewolking 1200 ft
EHDL 031325Z AUTO 16009KT 120V220 8000 -DZ FEW007 BKN010 OVC012 05/05 Q0995 REDZ GRN
EHPG - P11-B Sea, Netherlands
Afstand tot: WZW 106 km
Gewijzigd: 03-Dec-2020 14:25
Motregen, Grotendeels bewolkt  
Motregen, Grotendeels bewolkt  
   Wind: Zuiden 64.8 km/h
Wind: Zuiden 64.8 km/h
Temperatuur: 8°C
Voelt als: 2°C
Dauwpunt: 4°C
Vochtigheid: 76%
Barometer: 989 hPa
Bewolking: Grotendeels bewolkt
Zicht: meer dan 10 km
Bewolking: Licht bewolkt 1400 ft,
Gedeeltelijk bewolkt 2000 ft,
Grotendeels bewolkt 2500 ft
EHPG 031325Z AUTO 18035KT 9999 DZ FEW014 SCT020 BKN025 08/04 Q0989
EHMA - Awg-1 Sea, Netherlands
Afstand tot: NO 116 km
Gewijzigd: 03-Dec-2020 14:25
Heavy Drizzle, Regen, Grotendeels bewolkt  
Heavy Drizzle, Regen, Grotendeels bewolkt  
   Wind: Zuiden 40.7 km/h
Wind: Zuiden 40.7 km/h
Temperatuur: 6°C
Voelt als: 1°C
Dauwpunt: 5°C
Vochtigheid: 93%
Barometer: 993 hPa
Bewolking: Grotendeels bewolkt
Zicht: 5 km
Bewolking: Licht bewolkt 200 ft,
Gedeeltelijk bewolkt 400 ft,
Grotendeels bewolkt 600 ft
EHMA 031325Z AUTO 19022KT 4600 +DZRA FEW002 SCT004 BKN006 06/05 Q0993
EHSC - Goeree Le Sea, Netherlands
Afstand tot: ZW 116 km
Gewijzigd: 03-Dec-2020 14:25
  
  
   Wind: ZZW 48.2 km/h
Wind: ZZW 48.2 km/h
Temperatuur: 7°C
Voelt als: 2°C
Dauwpunt: 4°C
Vochtigheid: 81%
Barometer: 991 hPa
Zicht: meer dan 10 km
EHSC 031325Z AUTO 20026KT 9999 ///////// 07/04 Q0991 REDZ W11/H12
EHJR - K13-A Sea, Netherlands
Afstand tot: WNW 120 km
Gewijzigd: 03-Dec-2020 14:25
  
  
   Wind: Kalm
Wind: Kalm
Temperatuur: 9°C
Dauwpunt: 3°C
Vochtigheid: 66%
Barometer: 990 hPa
EHJR 031325Z AUTO 00000KT //// // ///////// 09/03 Q0990 RE// W///H14
EHGG - Groningen/Eelde, Netherlands
Afstand tot: ONO 126 km
Gewijzigd: 03-Dec-2020 14:25
Bewolking  
Bewolking  
   Wind: Zuiden 20.4 km/h
Wind: Zuiden 20.4 km/h
Temperatuur: 5°C
Voelt als: 1°C
Dauwpunt: 4°C
Vochtigheid: 93%
Barometer: 995 hPa
Bewolking: Bewolking
Zicht: meer dan 10 km
Bewolking: Gedeeltelijk bewolkt 700 ft,
Bewolking 800 ft
EHGG 031325Z AUTO 17011KT 140V200 9999 SCT007 OVC008 05/04 Q0995 NOSIG
EHGR - Gilze-Rijen Rnla, Netherlands
Afstand tot: Z 128 km
Gewijzigd: 03-Dec-2020 14:25
Wat regen mogelijk, Motregen, Grotendeels bewolkt  
Wat regen mogelijk, Motregen, Grotendeels bewolkt  
   Wind: Zuiden 18.5 km/h
Wind: Zuiden 18.5 km/h
Temperatuur: 6°C
Voelt als: 3°C
Dauwpunt: 5°C
Vochtigheid: 93%
Barometer: 994 hPa
Bewolking: Grotendeels bewolkt
Zicht: 9 km
Bewolking: Gedeeltelijk bewolkt 700 ft,
Grotendeels bewolkt 800 ft,
Grotendeels bewolkt 1000 ft
EHGR 031325Z AUTO 17010KT 140V220 9000 -RADZ SCT007 BKN008 BKN010 06/05 Q0994 GRN BECMG BKN012 BKN015 TEMPO OVC010
EHSA - Euro Platform, Netherlands
Afstand tot: ZW 130 km
Gewijzigd: 03-Dec-2020 14:25
Motregen  
Motregen  
   Wind: Zuiden 53.7 km/h
Wind: Zuiden 53.7 km/h
Temperatuur: 7°C
Voelt als: 1°C
Dauwpunt: 4°C
Vochtigheid: 81%
Barometer: 990 hPa
Zicht: meer dan 10 km
EHSA 031325Z AUTO 17029KT 9999 DZ ///////// 07/04 Q0990 W10/H17
EHVK - Volkel Rnlafb, Netherlands
Afstand tot: ZZO 135 km
Gewijzigd: 03-Dec-2020 14:25
Bewolking  
Bewolking  
   Wind: Zuiden 20.4 km/h
Wind: Zuiden 20.4 km/h
Temperatuur: 6°C
Voelt als: 2°C
Dauwpunt: 4°C
Vochtigheid: 87%
Barometer: 995 hPa
Bewolking: Bewolking
Zicht: meer dan 10 km
Bewolking: Gedeeltelijk bewolkt 1100 ft,
Bewolking 1300 ft
EHVK 031325Z AUTO 18011KT 140V230 9999 SCT011 OVC013 06/04 Q0995 REDZ GRN TEMPO SCT010 BKN013 OVC015
EHWO - Woensdrecht Rnla, Netherlands
Afstand tot: ZZW 144 km
Gewijzigd: 03-Dec-2020 14:25
Motregen, Bewolking  
Motregen, Bewolking  
   Wind: Zuiden 14.8 km/h
Wind: Zuiden 14.8 km/h
Temperatuur: 6°C
Voelt als: 3°C
Dauwpunt: 5°C
Vochtigheid: 93%
Barometer: 993 hPa
Bewolking: Bewolking
Zicht: meer dan 10 km
Bewolking: Licht bewolkt 1100 ft,
Grotendeels bewolkt 1700 ft,
Bewolking 2000 ft
EHWO 031325Z AUTO 18008KT 130V210 9999 DZ FEW011 BKN017 OVC020 06/05 Q0993 WHT
EHEH - Eindhoven Rnlafb, Netherlands
Afstand tot: ZZO 146 km
Gewijzigd: 03-Dec-2020 14:25
Wat regen mogelijk, Motregen, Grotendeels bewolkt  
Wat regen mogelijk, Motregen, Grotendeels bewolkt  
   Wind: Zuiden 20.4 km/h
Wind: Zuiden 20.4 km/h
Temperatuur: 6°C
Voelt als: 2°C
Dauwpunt: 4°C
Vochtigheid: 87%
Barometer: 995 hPa
Bewolking: Grotendeels bewolkt
Zicht: meer dan 10 km
Bewolking: Licht bewolkt 800 ft,
Gedeeltelijk bewolkt 900 ft,
Grotendeels bewolkt 1100 ft
EHEH 031325Z AUTO 18011KT 150V210 9999 -RADZ FEW008 SCT009 BKN011 06/04 Q0995 GRN TEMPO 4500 RADZ SCT006 BKN008
EDLV - Niederrhein, Germany
Afstand tot: ZO 154 km
Gewijzigd: 30-Nov-2020 23:50
Verouderd
Wat regen mogelijk, Grotendeels bewolkt  
Wat regen mogelijk, Grotendeels bewolkt  
   Wind: ZW 20.4 km/h
Wind: ZW 20.4 km/h
Temperatuur: 5°C
Voelt als: 1°C
Dauwpunt: 4°C
Vochtigheid: 93%
Barometer: 1013 hPa
Bewolking: Grotendeels bewolkt
Zicht: 8 km
Bewolking: Grotendeels bewolkt 400 ft
EDLV 302250Z 22011KT 8000 -RA BKN004 05/04 Q1013
 

Script ontwikkeld door  Saratoga-weather.org Aangepast voor de template door  Weerstation Leuven

U vindt ons ook hier:

Vereniging voor Weerkunde en Klimatologie

Het Weer Aktueel

WOW Nederland KNMI

UK Metoffice

European Weather Network

WeatherCloud

Weather Underground

Benelux Weer Netwerk

AWEKAS

WeatherlinkIP

Citizen Weather Observer Program (CWOP)

HAMweather, WeatherForYou, PWS Weather

        

Apparatuur in gebruik:

Weerstation
Davis - Vantage Veu

Weerprogramma
Meteobridge

Weercomputer
Carambola2 - MeteroBridge Pro (black)

Webleverancier
1Eurohosting

Hardwareleverancier 1
Uurwerk- & Meteospecialist Vlasma

Hardwareleverancier 2
Weerhuisje

Davis - Vantage Veu

Meteobridge

Carambola2 - MeteroBridge Pro (black)

1Eurohosting

Uurwerk- & Meteospecialist Vlasma

Weerhuisje


Alles over het weer rondom het weerstation van Meteo Oudkarspel, vind je hier. Dus alles onder 1 dak.

Everything about the weather around the Meteo Oudkarspel weather station can be found here. So everything under one roof..

Dus kom regelmatig terug, So come back regularly.


# #---------------------- version history # 3.20 2015-10-12 release 2.8b version